armiusate.it alexa rank chart, armiusate.it alexa rank daily changes

armiusate.it alexa rank chart, armiusate.it alexa rank daily changes

armiusate.it
Actual rank:
126 415

RANK HISTORY

Date Rank Diff
2019/04/22 126 415 -275 239
2019/04/20 401 654 +312 924
2019/04/19 88 730 +1 328
2019/04/18 87 402 -159 402
2019/04/17 246 804 +204 304
2019/04/16 42 500 -33 682
2019/04/15 76 182 -894
2019/04/14 77 076 -41 407
2019/04/13 118 483 +30 719
2019/04/12 87 764 -3 671
2019/04/11 91 435 +174
2019/04/09 91 261 -4 874
2019/04/08 96 135 +44 661
2019/04/07 51 474 -163 749
2019/04/06 215 223 +14 139
2019/04/05 201 084 +134 930
2019/04/04 66 154 -126 869
2019/04/03 193 023 +72 520
2019/04/02 120 503 +6 425
2019/04/01 114 078 +1 834
2019/03/31 112 244 +24 495
2019/03/30 87 749 +385
2019/03/29 87 364 -42 418
2019/03/28 129 782 +18 669
2019/03/27 111 113 +17 533
2019/03/26 93 580 -85 103
2019/03/25 178 683 +108 586
2019/03/24 70 097 -255 381
2019/03/23 325 478 +162 036
2019/03/22 163 442 +95 885
2019/03/21 67 557 -60 657
2019/03/20 128 214 +61 088
2019/03/19 67 126 -121 504
2019/03/18 188 630 +117 391
2019/03/17 71 239 +12 273
2019/03/16 58 966 -50 561
2019/03/15 109 527 -2 123
2019/03/14 111 650 +53 125
2019/03/12 58 525 -22 278
2019/03/11 80 803 -21 214
2019/03/10 102 017 -94 159
2019/03/09 196 176 +87 459
2019/03/08 108 717 -87 451
2019/03/07 196 168 +43 810
2019/03/06 152 358 +109 971
2019/03/05 42 387 -124 308
2019/03/04 166 695 -40 450
2019/03/03 207 145 +166 277
2019/03/02 40 868 -278 338
2019/03/01 319 206 +260 072
2019/02/28 59 134 -86 406
2019/02/27 145 540 +73 002
2019/02/26 72 538 -132 796
2019/02/22 205 334 +140 827
2019/02/21 64 507

WIDGET FOR YOUR SITE

DOMAINS WITH THE NEAREST RANK

Domain Rank
agcscanlation.it 126 410
agensir.it 126 411
amnotizie.it 126 412
animepertutti.com 126 413
ardes.it 126 414
armiusate.it 126 415
bpm-power.com 126 416
capital.it 126 417
careerjet.it 126 418
compass.it 126 419
corrispondenzaromana.it 126 420

DOMAINS WITH THE NEAREST RANK BY TLD .it

Domain Rank
kikaustore.it 125 325
agcscanlation.it 126 410
agensir.it 126 411
amnotizie.it 126 412
ardes.it 126 414
armiusate.it 126 415
capital.it 126 417
careerjet.it 126 418
compass.it 126 419
corrispondenzaromana.it 126 420
etiquette.it 126 422